createdAt,value
2023-04-16T00:00:15.430Z,94627.75
2023-04-16T00:03:17.697Z,94625.63
2023-04-16T00:06:20.174Z,94625.38
2023-04-16T00:09:22.082Z,94622.09
2023-04-16T00:12:24.209Z,94614.28
2023-04-16T00:15:26.470Z,94609.75
2023-04-16T00:18:37.909Z,94612.47
2023-04-16T00:21:39.947Z,94611.94
2023-04-16T00:24:42.202Z,94596.41
2023-04-16T00:27:44.097Z,94607.03
2023-04-16T00:30:46.200Z,94604.94
2023-04-16T00:33:48.151Z,94610.19
2023-04-16T00:36:49.991Z,94622.84
2023-04-16T00:39:51.867Z,94616.41
2023-04-16T00:42:53.701Z,94626.88
2023-04-16T00:45:57.001Z,94622.75
2023-04-16T00:49:01.334Z,94622.75
2023-04-16T00:52:03.454Z,94616.81
2023-04-16T00:55:07.527Z,94612.84
2023-04-16T00:58:09.766Z,94617.00
2023-04-16T01:01:11.864Z,94610.81
2023-04-16T01:04:14.449Z,94608.31
2023-04-16T01:07:17.262Z,94610.91
2023-04-16T01:10:19.200Z,94608.06
2023-04-16T01:13:21.194Z,94615.59
2023-04-16T01:16:23.202Z,94613.84
2023-04-16T01:19:25.265Z,94619.75
2023-04-16T01:22:30.904Z,94613.41
2023-04-16T01:25:32.760Z,94619.72
2023-04-16T01:28:35.410Z,94628.56
2023-04-16T01:31:37.470Z,94627.72
2023-04-16T01:34:39.254Z,94620.97
2023-04-16T01:37:41.121Z,94620.03
2023-04-16T01:40:43.354Z,94621.66
2023-04-16T01:43:45.508Z,94622.22
2023-04-16T01:46:47.558Z,94623.88
2023-04-16T01:49:49.699Z,94626.47
2023-04-16T01:52:51.525Z,94622.34
2023-04-16T01:55:53.969Z,94625.25
2023-04-16T01:58:56.192Z,94631.81
2023-04-16T02:02:07.312Z,94631.97
2023-04-16T02:05:09.275Z,94636.22
2023-04-16T02:08:11.296Z,94641.69
2023-04-16T02:11:13.362Z,94639.63
2023-04-16T02:14:15.364Z,94630.69
2023-04-16T02:17:17.803Z,94639.50
2023-04-16T02:20:19.955Z,94626.41
2023-04-16T02:23:21.749Z,94624.59
2023-04-16T02:26:23.618Z,94629.22
2023-04-16T02:29:25.543Z,94628.91
2023-04-16T02:32:27.490Z,94640.97
2023-04-16T02:35:29.530Z,94636.56
2023-04-16T02:38:31.607Z,94631.31
2023-04-16T02:41:33.952Z,94636.84
2023-04-16T02:44:35.865Z,94633.44
2023-04-16T02:47:37.864Z,94634.41
2023-04-16T02:50:39.703Z,94641.38
2023-04-16T02:53:45.551Z,94643.34
2023-04-16T02:56:47.465Z,94633.16
2023-04-16T02:59:49.356Z,94644.88
2023-04-16T03:02:51.495Z,94648.06
2023-04-16T03:05:53.512Z,94645.31
2023-04-16T03:08:55.334Z,94647.84
2023-04-16T03:11:57.262Z,94649.38
2023-04-16T03:14:59.275Z,94637.81
2023-04-16T03:18:01.314Z,94654.59
2023-04-16T03:21:03.421Z,94658.97
2023-04-16T03:24:05.709Z,94655.84
2023-04-16T03:27:07.542Z,94653.41
2023-04-16T03:30:13.542Z,94658.22
2023-04-16T03:33:15.530Z,94663.16
2023-04-16T03:36:17.396Z,94659.59
2023-04-16T03:39:19.569Z,94670.03
2023-04-16T03:42:21.369Z,94667.44
2023-04-16T03:45:23.225Z,94678.31
2023-04-16T03:48:25.044Z,94681.59
2023-04-16T03:51:27.161Z,94684.47
2023-04-16T03:54:29.101Z,94673.50
2023-04-16T03:57:31.234Z,94684.06
2023-04-16T04:00:33.153Z,94692.75
2023-04-16T04:03:35.221Z,94691.63
2023-04-16T04:06:37.691Z,94698.22
2023-04-16T04:09:39.580Z,94698.25
2023-04-16T04:12:41.599Z,94700.00
2023-04-16T04:15:44.559Z,94713.66
2023-04-16T04:18:46.647Z,94704.84
2023-04-16T04:21:48.536Z,94710.03
2023-04-16T04:24:50.402Z,94719.41
2023-04-16T04:27:52.217Z,94709.81
2023-04-16T04:30:54.063Z,94709.50
2023-04-16T04:33:56.220Z,94715.81
2023-04-16T04:36:59.035Z,94714.75
2023-04-16T04:40:01.018Z,94716.75
2023-04-16T04:43:02.915Z,94708.22
2023-04-16T04:46:04.966Z,94703.97
2023-04-16T04:49:07.048Z,94708.28
2023-04-16T04:52:09.071Z,94711.97
2023-04-16T04:55:11.344Z,94712.28
2023-04-16T04:58:13.189Z,94719.81
2023-04-16T05:01:15.658Z,94724.84
2023-04-16T05:04:17.830Z,94721.84
2023-04-16T05:07:19.726Z,94727.66
2023-04-16T05:10:21.650Z,94734.91
2023-04-16T05:13:23.615Z,94737.47
2023-04-16T05:16:25.635Z,94724.91
2023-04-16T05:19:27.925Z,94722.25
2023-04-16T05:22:29.749Z,94720.63
2023-04-16T05:25:31.852Z,94731.50
2023-04-16T05:28:33.921Z,94727.72
2023-04-16T05:31:36.460Z,94730.19
2023-04-16T05:34:38.291Z,94731.88
2023-04-16T05:37:40.202Z,94733.69
2023-04-16T05:40:42.085Z,94735.66
2023-04-16T05:43:43.940Z,94733.63
2023-04-16T05:46:46.024Z,94735.00
2023-04-16T05:49:47.906Z,94742.59
2023-04-16T05:52:49.684Z,94734.53
2023-04-16T05:55:51.584Z,94733.81
2023-04-16T05:58:57.272Z,94740.25
2023-04-16T06:01:59.799Z,94736.88
2023-04-16T06:05:01.799Z,94750.69
2023-04-16T06:08:03.843Z,94748.41
2023-04-16T06:11:05.988Z,94752.41
2023-04-16T06:14:07.906Z,94748.69
2023-04-16T06:17:09.787Z,94749.84
2023-04-16T06:20:12.655Z,94755.78
2023-04-16T06:23:15.732Z,94753.88
2023-04-16T06:26:18.358Z,94752.63
2023-04-16T06:29:21.319Z,94744.28
2023-04-16T06:32:25.064Z,94750.53
2023-04-16T06:35:26.996Z,94749.78
2023-04-16T06:38:28.882Z,94756.38
2023-04-16T06:41:31.180Z,94754.84
2023-04-16T06:44:33.166Z,94757.59
2023-04-16T06:47:35.001Z,94758.50
2023-04-16T06:50:37.661Z,94760.34
2023-04-16T06:53:39.682Z,94762.81
2023-04-16T06:56:41.627Z,94760.13
2023-04-16T06:59:43.480Z,94775.13
2023-04-16T07:02:45.515Z,94776.72
2023-04-16T07:05:47.468Z,94770.56
2023-04-16T07:08:49.379Z,94775.72
2023-04-16T07:11:51.512Z,94779.59
2023-04-16T07:14:53.546Z,94782.06
2023-04-16T07:17:55.474Z,94779.13
2023-04-16T07:20:57.567Z,94786.22
2023-04-16T07:23:59.688Z,94774.22
2023-04-16T07:27:01.687Z,94779.78
2023-04-16T07:30:04.013Z,94783.34
2023-04-16T07:33:06.206Z,94784.53
2023-04-16T07:36:08.165Z,94791.69
2023-04-16T07:39:11.407Z,94775.53
2023-04-16T07:42:14.374Z,94787.22
2023-04-16T07:45:17.080Z,94779.50
2023-04-16T07:48:19.160Z,94779.25
2023-04-16T07:51:21.349Z,94789.16
2023-04-16T07:54:23.337Z,94803.56
2023-04-16T07:57:25.411Z,94791.88
2023-04-16T08:00:27.756Z,94782.25
2023-04-16T08:03:30.935Z,94782.63
2023-04-16T08:06:33.010Z,94783.84
2023-04-16T08:09:36.308Z,94778.50
2023-04-16T08:12:38.353Z,94773.81
2023-04-16T08:15:40.265Z,94770.19
2023-04-16T08:18:43.420Z,94783.34
2023-04-16T08:21:45.802Z,94780.06
2023-04-16T08:24:47.713Z,94787.97
2023-04-16T08:27:49.652Z,94786.16
2023-04-16T08:30:51.740Z,94782.09
2023-04-16T08:33:53.591Z,94779.38
2023-04-16T08:36:55.848Z,94788.22
2023-04-16T08:39:57.750Z,94787.00
2023-04-16T08:43:03.088Z,94789.53
2023-04-16T08:46:09.174Z,94788.72
2023-04-16T08:49:17.965Z,94800.19
2023-04-16T08:52:24.217Z,94793.50
2023-04-16T08:55:38.488Z,94804.16
2023-04-16T08:58:41.192Z,94802.03
2023-04-16T09:01:43.597Z,94798.16
2023-04-16T09:04:46.971Z,94807.31
2023-04-16T09:07:49.038Z,94803.06
2023-04-16T09:10:51.359Z,94816.47
2023-04-16T09:13:53.756Z,94813.00
2023-04-16T09:16:56.209Z,94819.97
2023-04-16T09:19:58.234Z,94811.53
2023-04-16T09:23:00.768Z,94805.81
2023-04-16T09:26:05.585Z,94810.88
2023-04-16T09:29:09.883Z,94813.53
2023-04-16T09:32:12.528Z,94812.78
2023-04-16T09:35:15.687Z,94812.44
2023-04-16T09:38:18.245Z,94804.19
2023-04-16T09:41:24.380Z,94813.59
2023-04-16T09:44:36.911Z,94822.63
2023-04-16T09:47:44.917Z,94821.75
2023-04-16T09:50:52.442Z,94824.28
2023-04-16T09:53:57.267Z,94826.66
2023-04-16T09:57:00.984Z,94823.31
2023-04-16T10:00:06.238Z,94827.34
2023-04-16T10:03:08.423Z,94823.50
2023-04-16T10:06:22.006Z,94827.44
2023-04-16T10:09:23.894Z,94834.75
2023-04-16T10:12:27.210Z,94823.00
2023-04-16T10:15:29.502Z,94823.50
2023-04-16T10:18:31.561Z,94814.34
2023-04-16T10:21:35.444Z,94814.75
2023-04-16T10:24:37.382Z,94810.59
2023-04-16T10:27:40.791Z,94805.16
2023-04-16T10:30:52.686Z,94808.59
2023-04-16T10:33:56.206Z,94800.91
2023-04-16T10:36:58.110Z,94800.75
2023-04-16T10:40:00.198Z,94808.69
2023-04-16T10:43:02.295Z,94814.88
2023-04-16T10:46:32.942Z,94809.44
2023-04-16T10:49:35.913Z,94796.72
2023-04-16T10:52:38.182Z,94796.53
2023-04-16T10:55:40.076Z,94797.59
2023-04-16T10:58:42.391Z,94806.97
2023-04-16T11:01:47.049Z,94798.91
2023-04-16T11:04:50.020Z,94804.75
2023-04-16T11:07:52.076Z,94800.78
2023-04-16T11:10:57.975Z,94794.22
2023-04-16T11:14:00.364Z,94800.97
2023-04-16T11:17:03.930Z,94809.63
2023-04-16T11:20:19.488Z,94802.59
2023-04-16T11:23:22.225Z,94809.72
2023-04-16T11:26:28.800Z,94807.13
2023-04-16T11:29:30.743Z,94815.09
2023-04-16T11:32:33.982Z,94808.44
2023-04-16T11:35:36.288Z,94797.94
2023-04-16T11:38:41.570Z,94803.47
2023-04-16T11:41:47.939Z,94795.81
2023-04-16T11:44:57.021Z,94797.38
2023-04-16T11:47:59.001Z,94796.28
2023-04-16T11:51:01.079Z,94795.63
2023-04-16T11:54:03.009Z,94796.09
2023-04-16T11:57:05.076Z,94802.09
2023-04-16T12:00:13.001Z,94795.13
2023-04-16T12:03:15.279Z,94782.75
2023-04-16T12:06:17.494Z,94792.47
2023-04-16T12:09:31.824Z,94789.50
2023-04-16T12:12:35.473Z,94776.72
2023-04-16T12:15:51.746Z,94790.28
2023-04-16T12:19:01.339Z,94791.06
2023-04-16T12:22:03.298Z,94788.09
2023-04-16T12:25:14.079Z,94784.00
2023-04-16T12:28:31.060Z,94782.75
2023-04-16T12:31:40.508Z,94778.97
2023-04-16T12:34:54.080Z,94774.75
2023-04-16T12:37:56.011Z,94771.53
2023-04-16T12:40:59.005Z,94770.75
2023-04-16T12:44:18.993Z,94762.63
2023-04-16T12:47:20.930Z,94772.28
2023-04-16T12:50:22.881Z,94758.47
2023-04-16T12:53:24.888Z,94763.00
2023-04-16T12:56:27.469Z,94762.38
2023-04-16T12:59:29.477Z,94755.72
2023-04-16T13:02:32.503Z,94751.16
2023-04-16T13:05:34.651Z,94747.13
2023-04-16T13:08:46.971Z,94755.03
2023-04-16T13:11:49.165Z,94752.22
2023-04-16T13:15:07.625Z,94755.06
2023-04-16T13:18:09.837Z,94749.84
2023-04-16T13:21:12.161Z,94748.00
2023-04-16T13:24:14.417Z,94748.81
2023-04-16T13:27:16.902Z,94747.78
2023-04-16T13:30:18.850Z,94753.13
2023-04-16T13:33:21.440Z,94748.78
2023-04-16T13:36:23.888Z,94743.63
2023-04-16T13:39:27.544Z,94758.22
2023-04-16T13:42:29.514Z,94737.84
2023-04-16T13:45:31.828Z,94735.91
2023-04-16T13:48:33.697Z,94740.31
2023-04-16T13:51:38.549Z,94721.34
2023-04-16T13:54:40.944Z,94732.78
2023-04-16T13:57:47.792Z,94729.22
2023-04-16T14:00:50.586Z,94727.97
2023-04-16T14:03:52.799Z,94721.66
2023-04-16T14:06:55.394Z,94722.75
2023-04-16T14:09:57.283Z,94722.78
2023-04-16T14:12:59.517Z,94721.94
2023-04-16T14:16:02.732Z,94724.44
2023-04-16T14:19:04.625Z,94721.91
2023-04-16T14:22:08.753Z,94714.84
2023-04-16T14:25:11.222Z,94716.16
2023-04-16T14:28:15.627Z,94715.19
2023-04-16T14:31:18.106Z,94714.78
2023-04-16T14:34:20.011Z,94717.56
2023-04-16T14:37:22.163Z,94712.53
2023-04-16T14:40:23.998Z,94715.84
2023-04-16T14:43:26.239Z,94714.44
2023-04-16T14:46:28.447Z,94716.63
2023-04-16T14:49:30.579Z,94710.94
2023-04-16T14:52:32.759Z,94700.38
2023-04-16T14:55:34.750Z,94702.66
2023-04-16T14:58:39.153Z,94709.25
2023-04-16T15:01:42.084Z,94704.88
2023-04-16T15:04:44.285Z,94707.25
2023-04-16T15:07:46.247Z,94695.03
2023-04-16T15:10:48.191Z,94704.38
2023-04-16T15:13:50.370Z,94708.72
2023-04-16T15:16:54.901Z,94695.22
2023-04-16T15:19:57.128Z,94692.91
2023-04-16T15:22:59.362Z,94690.47
2023-04-16T15:26:03.656Z,94698.25
2023-04-16T15:29:06.339Z,94695.38
2023-04-16T15:32:08.764Z,94701.97
2023-04-16T15:35:11.444Z,94696.41
2023-04-16T15:38:13.755Z,94699.91
2023-04-16T15:41:15.912Z,94701.56
2023-04-16T15:44:18.084Z,94691.41
2023-04-16T15:47:21.107Z,94695.06
2023-04-16T15:50:23.642Z,94685.31
2023-04-16T15:53:26.527Z,94677.56
2023-04-16T15:56:28.660Z,94686.59
2023-04-16T15:59:31.212Z,94686.19
2023-04-16T16:02:34.211Z,94690.91
2023-04-16T16:05:36.769Z,94685.75
2023-04-16T16:08:39.480Z,94685.19
2023-04-16T16:11:42.413Z,94688.88
2023-04-16T16:14:44.716Z,94688.25
2023-04-16T16:17:47.357Z,94691.75
2023-04-16T16:20:49.979Z,94689.50
2023-04-16T16:23:52.158Z,94687.88
2023-04-16T16:26:54.217Z,94693.00
2023-04-16T16:30:01.849Z,94697.72
2023-04-16T16:33:05.792Z,94695.47
2023-04-16T16:36:12.180Z,94698.75
2023-04-16T16:39:15.209Z,94696.94
2023-04-16T16:42:21.097Z,94696.94
2023-04-16T16:45:26.451Z,94693.84
2023-04-16T16:48:31.356Z,94694.06
2023-04-16T16:51:33.982Z,94694.25
2023-04-16T16:54:36.136Z,94697.31
2023-04-16T16:57:43.096Z,94688.31
2023-04-16T17:00:57.725Z,94690.97
2023-04-16T17:04:00.598Z,94699.69
2023-04-16T17:07:03.110Z,94700.94
2023-04-16T17:10:07.341Z,94704.78
2023-04-16T17:13:09.865Z,94703.13
2023-04-16T17:16:13.240Z,94698.81
2023-04-16T17:19:16.009Z,94698.22
2023-04-16T17:22:18.393Z,94699.22
2023-04-16T17:25:20.747Z,94705.34
2023-04-16T17:28:23.324Z,94699.38
2023-04-16T17:31:29.012Z,94703.06
2023-04-16T17:34:31.703Z,94710.81
2023-04-16T17:37:34.615Z,94712.25
2023-04-16T17:40:40.300Z,94714.31
2023-04-16T17:43:43.356Z,94718.19
2023-04-16T17:46:48.581Z,94714.69
2023-04-16T17:49:57.710Z,94722.84
2023-04-16T17:53:03.658Z,94725.25
2023-04-16T17:56:06.884Z,94730.19
2023-04-16T17:59:09.248Z,94727.31
2023-04-16T18:02:11.513Z,94734.06
2023-04-16T18:05:14.796Z,94732.81
2023-04-16T18:08:17.122Z,94734.28
2023-04-16T18:11:19.436Z,94728.97
2023-04-16T18:14:25.191Z,94734.28
2023-04-16T18:17:27.426Z,94728.13
2023-04-16T18:20:29.754Z,94737.09
2023-04-16T18:23:31.900Z,94737.69
2023-04-16T18:26:36.201Z,94741.78
2023-04-16T18:29:39.876Z,94743.00
2023-04-16T18:32:56.115Z,94746.50
2023-04-16T18:36:04.696Z,94745.03
2023-04-16T18:39:08.260Z,94742.31
2023-04-16T18:42:10.706Z,94741.91
2023-04-16T18:45:20.983Z,94745.63
2023-04-16T18:48:23.799Z,94755.41
2023-04-16T18:51:27.358Z,94740.25
2023-04-16T18:54:29.561Z,94755.22
2023-04-16T18:57:31.767Z,94748.06
2023-04-16T19:00:34.006Z,94749.44
2023-04-16T19:03:37.112Z,94749.44
2023-04-16T19:06:40.295Z,94753.72
2023-04-16T19:09:42.555Z,94741.47
2023-04-16T19:12:44.775Z,94753.72
2023-04-16T19:15:47.878Z,94761.47
2023-04-16T19:18:50.896Z,94758.56
2023-04-16T19:21:53.364Z,94757.09
2023-04-16T19:24:57.428Z,94748.28
2023-04-16T19:28:01.243Z,94751.53
2023-04-16T19:31:03.344Z,94754.34
2023-04-16T19:34:05.690Z,94748.78
2023-04-16T19:37:09.691Z,94738.31
2023-04-16T19:40:12.111Z,94756.88
2023-04-16T19:43:17.441Z,94747.44
2023-04-16T19:46:19.429Z,94740.88
2023-04-16T19:49:21.683Z,94737.97
2023-04-16T19:52:23.566Z,94736.31
2023-04-16T19:55:26.520Z,94733.66
2023-04-16T19:58:28.536Z,94740.91
2023-04-16T20:01:38.269Z,94734.47
2023-04-16T20:04:41.977Z,94722.94
2023-04-16T20:07:44.271Z,94728.88
2023-04-16T20:10:46.574Z,94715.31
2023-04-16T20:13:48.835Z,94735.56
2023-04-16T20:16:50.759Z,94735.78
2023-04-16T20:19:53.212Z,94736.75
2023-04-16T20:22:55.703Z,94738.34
2023-04-16T20:25:57.612Z,94742.41
2023-04-16T20:29:02.682Z,94731.53
2023-04-16T20:32:05.925Z,94736.59
2023-04-16T20:35:13.646Z,94734.97
2023-04-16T20:38:15.525Z,94734.13
2023-04-16T20:41:23.589Z,94731.88
2023-04-16T20:44:48.599Z,94729.59
2023-04-16T20:47:51.151Z,94736.16
2023-04-16T20:50:58.535Z,94741.00
2023-04-16T20:54:01.100Z,94731.16
2023-04-16T20:57:04.828Z,94730.72
2023-04-16T21:00:10.324Z,94728.81
2023-04-16T21:03:12.245Z,94728.25
2023-04-16T21:06:17.864Z,94724.09
2023-04-16T21:09:21.350Z,94733.50
2023-04-16T21:12:24.519Z,94738.16
2023-04-16T21:15:26.735Z,94729.31
2023-04-16T21:18:29.473Z,94720.22
2023-04-16T21:21:32.535Z,94733.91
2023-04-16T21:24:34.660Z,94718.88
2023-04-16T21:27:36.477Z,94720.97
2023-04-16T21:30:38.864Z,94730.84
2023-04-16T21:33:41.128Z,94721.78
2023-04-16T21:36:42.928Z,94729.22
2023-04-16T21:39:45.275Z,94726.94
2023-04-16T21:42:47.221Z,94723.66
2023-04-16T21:45:52.097Z,94725.94
2023-04-16T21:48:54.081Z,94733.41
2023-04-16T21:51:59.249Z,94730.88
2023-04-16T21:55:01.175Z,94732.84
2023-04-16T21:58:03.930Z,94722.00
2023-04-16T22:01:07.713Z,94722.66
2023-04-16T22:04:12.332Z,94716.72
2023-04-16T22:07:22.132Z,94705.41
2023-04-16T22:10:27.344Z,94700.31
2023-04-16T22:13:42.460Z,94707.25
2023-04-16T22:16:46.288Z,94718.16
2023-04-16T22:19:49.427Z,94713.44
2023-04-16T22:22:57.903Z,94726.38
2023-04-16T22:26:16.371Z,94695.56
2023-04-16T22:29:22.896Z,94695.41
2023-04-16T22:32:27.900Z,94720.81
2023-04-16T22:35:43.877Z,94719.09
2023-04-16T22:38:46.831Z,94713.31
2023-04-16T22:42:05.548Z,94719.09
2023-04-16T22:45:08.530Z,94697.19
2023-04-16T22:48:13.059Z,94705.69
2023-04-16T22:51:17.634Z,94693.72
2023-04-16T22:54:21.662Z,94687.16
2023-04-16T22:57:26.706Z,94692.00
2023-04-16T23:00:28.769Z,94692.09
2023-04-16T23:03:31.557Z,94693.09
2023-04-16T23:06:33.719Z,94702.28
2023-04-16T23:09:36.397Z,94699.38
2023-04-16T23:12:40.668Z,94701.31
2023-04-16T23:16:21.252Z,94687.91
2023-04-16T23:19:32.846Z,94701.00
2023-04-16T23:22:35.078Z,94703.63
2023-04-16T23:25:37.229Z,94672.06
2023-04-16T23:28:46.013Z,94690.75
2023-04-16T23:31:50.279Z,94670.88
2023-04-16T23:34:52.625Z,94689.50
2023-04-16T23:37:54.860Z,94676.25
2023-04-16T23:40:56.918Z,94675.28
2023-04-16T23:43:59.118Z,94689.03
2023-04-16T23:47:01.268Z,94663.69
2023-04-16T23:50:03.797Z,94680.63
2023-04-16T23:53:06.223Z,94668.72
2023-04-16T23:56:11.319Z,94672.63
2023-04-16T23:59:13.871Z,94675.53
